Time;durP1;ratioP1;P1;durP2;ratioP2;P2;SDS_P1;SDS_P2;PMS_P1;PMS_P2;Temp;Humidity;BMP_temperature;BMP_pressure;BME280_temperature;BME280_humidity;BME280_pressure;Samples;Min_cycle;Max_cycle;Signal;HPM_P1;HPM_P2
2023/09/06 00:01:12;;;;;;;48.63;35.83;;;;;;;22.31;85.45;99507.66;5107003;27;20039;-83
2023/09/06 00:03:56;;;;;;;54.00;36.75;;;;;;;22.10;86.89;99506.72;5123954;27;20127;-85
2023/09/06 00:06:40;;;;;;;49.25;35.17;;;;;;;22.22;86.81;99502.00;5106034;27;20508;-85
2023/09/06 00:09:24;;;;;;;57.40;38.33;;;;;;;22.23;86.94;99506.28;5125182;27;20137;-85
2023/09/06 00:12:08;;;;;;;52.75;37.63;;;;;;;22.08;87.75;99504.34;5104294;27;20062;-84
2023/09/06 00:14:54;;;;;;;49.63;37.53;;;;;;;22.34;86.38;99499.09;5106131;27;20482;-86
2023/09/06 00:17:41;;;;;;;55.83;37.28;;;;;;;22.26;87.05;99500.41;5102714;27;20046;-87
2023/09/06 00:20:24;;;;;;;55.30;38.42;;;;;;;22.16;87.44;99500.38;5122777;27;20498;-84
2023/09/06 00:23:09;;;;;;;56.53;39.55;;;;;;;22.17;87.52;99496.63;5104204;27;20038;-86
2023/09/06 00:25:53;;;;;;;62.65;41.83;;;;;;;22.02;89.20;99508.06;5106138;28;20084;-84
2023/09/06 00:28:38;;;;;;;57.40;40.47;;;;;;;22.33;87.95;99504.72;5104758;28;20127;-85
2023/09/06 00:31:22;;;;;;;58.33;39.97;;;;;;;22.40;87.13;99514.13;5117431;27;20054;-86
2023/09/06 00:34:06;;;;;;;59.13;40.97;;;;;;;22.59;86.62;99502.94;5118171;28;20115;-85
2023/09/06 00:36:50;;;;;;;59.00;42.15;;;;;;;22.59;86.46;99502.16;5118984;28;20401;-85
2023/09/06 00:39:34;;;;;;;61.45;41.55;;;;;;;22.43;86.76;99498.63;5103374;28;20148;-85
2023/09/06 00:42:19;;;;;;;62.08;43.97;;;;;;;22.35;87.25;99506.06;5102229;28;20045;-85
2023/09/06 00:45:03;;;;;;;64.88;45.83;;;;;;;22.40;87.27;99500.75;5121024;28;20050;-85
2023/09/06 00:47:50;;;;;;;68.35;48.20;;;;;;;22.13;88.20;99500.06;5097094;28;20085;-86
2023/09/06 00:50:36;;;;;;;68.32;47.08;;;;;;;22.43;87.54;99498.63;5120743;28;20050;-85
2023/09/06 00:53:22;;;;;;;70.78;47.58;;;;;;;22.47;87.78;99494.38;5103713;28;20550;-85
2023/09/06 00:56:08;;;;;;;67.05;46.35;;;;;;;22.40;87.52;99495.41;5123115;28;20034;-84
2023/09/06 00:58:53;;;;;;;66.85;46.83;;;;;;;22.34;88.19;99491.06;5101947;28;20518;-84
2023/09/06 01:01:37;;;;;;;84.90;50.10;;;;;;;22.29;88.39;99495.59;5109669;28;20091;-82
2023/09/06 01:04:21;;;;;;;82.50;51.28;;;;;;;22.39;88.31;99499.09;5102515;28;20097;-86
2023/09/06 01:07:07;;;;;;;82.07;50.35;;;;;;;22.31;88.00;99488.94;5121301;28;20077;-85
2023/09/06 01:09:51;;;;;;;84.75;54.05;;;;;;;22.29;88.62;99491.06;5122375;28;20041;-85
2023/09/06 01:12:36;;;;;;;89.72;55.22;;;;;;;22.40;88.12;99478.53;5121952;28;20092;-86
2023/09/06 01:15:20;;;;;;;90.30;55.00;;;;;;;22.39;88.16;99483.06;5117046;28;20042;-86
2023/09/06 01:18:05;;;;;;;97.68;56.60;;;;;;;22.45;88.51;99485.78;5099954;28;20058;-85
2023/09/06 01:20:54;;;;;;;117.72;57.72;;;;;;;22.37;88.77;99489.75;5100918;28;20058;-85
2023/09/06 01:23:40;;;;;;;114.40;59.75;;;;;;;21.97;90.54;99482.09;5107732;27;20041;-85
2023/09/06 01:26:24;;;;;;;109.70;60.38;;;;;;;22.11;90.00;99471.72;5124569;27;20050;-86
2023/09/06 01:29:09;;;;;;;118.72;63.00;;;;;;;22.08;91.08;99482.97;5109353;27;20129;-86
2023/09/06 01:31:53;;;;;;;113.38;59.13;;;;;;;22.29;90.35;99482.22;5125879;27;20169;-86
2023/09/06 01:34:37;;;;;;;110.25;57.95;;;;;;;22.39;89.98;99475.03;5105280;27;20077;-85
2023/09/06 01:37:23;;;;;;;118.85;61.92;;;;;;;22.36;90.41;99475.56;5109709;27;20096;-86
2023/09/06 01:40:19;;;;;;;116.07;58.13;;;;;;;22.65;89.03;99480.50;5113143;27;20037;-86
2023/09/06 01:43:04;;;;;;;116.85;61.13;;;;;;;22.06;90.79;99479.75;5125452;27;20411;-85
2023/09/06 01:45:52;;;;;;;114.47;59.83;;;;;;;22.22;90.89;99480.59;5108818;27;20061;-84
2023/09/06 01:48:36;;;;;;;116.45;60.50;;;;;;;22.52;91.14;99491.69;5119820;27;20401;-84
2023/09/06 01:51:22;;;;;;;114.82;61.58;;;;;;;22.26;91.84;99484.34;5108488;27;20076;-85
2023/09/06 01:54:10;;;;;;;111.22;60.17;;;;;;;22.47;91.01;99478.31;5118478;27;20042;-84
2023/09/06 01:56:54;;;;;;;116.18;59.28;;;;;;;22.76;89.99;99486.69;5108386;27;20096;-86
2023/09/06 01:59:38;;;;;;;107.68;57.20;;;;;;;22.98;88.98;99480.31;5127042;27;20038;-84
2023/09/06 02:02:22;;;;;;;109.57;55.75;;;;;;;22.87;89.90;99482.16;5125497;27;20042;-85
2023/09/06 02:05:06;;;;;;;100.00;55.88;;;;;;;22.95;89.53;99484.28;5124730;27;20073;-84
2023/09/06 02:07:50;;;;;;;109.80;58.47;;;;;;;23.11;88.79;99487.00;5117573;27;20093;-84
2023/09/06 02:10:34;;;;;;;101.95;56.47;;;;;;;23.19;88.57;99477.63;5104921;27;20042;-84
2023/09/06 02:13:18;;;;;;;108.00;55.95;;;;;;;22.90;89.39;99486.19;5102960;27;20170;-84
2023/09/06 02:16:02;;;;;;;106.82;55.30;;;;;;;23.01;89.27;99476.28;5108570;27;20038;-84
2023/09/06 02:18:47;;;;;;;103.80;55.70;;;;;;;22.96;89.35;99472.53;5108190;27;20092;-85
2023/09/06 02:21:31;;;;;;;96.25;54.70;;;;;;;22.82;89.78;99479.47;5107255;27;20084;-84
2023/09/06 02:24:15;;;;;;;98.28;53.83;;;;;;;22.92;89.80;99476.00;5111008;27;20069;-84
2023/09/06 02:26:59;;;;;;;99.30;54.58;;;;;;;22.56;91.08;99473.28;5122626;27;20176;-84
2023/09/06 02:29:43;;;;;;;93.47;53.20;;;;;;;22.87;89.84;99476.81;5123427;27;20050;-84
2023/09/06 02:32:27;;;;;;;94.55;54.42;;;;;;;22.59;91.28;99465.50;5124244;27;20085;-84
2023/09/06 02:35:11;;;;;;;95.50;54.63;;;;;;;22.36;91.94;99467.53;5106859;27;20100;-85
2023/09/06 02:37:55;;;;;;;92.15;52.10;;;;;;;22.57;91.58;99470.31;5107376;27;20122;-84
2023/09/06 02:40:42;;;;;;;94.82;52.17;;;;;;;22.60;91.33;99479.69;5110699;27;20164;-84
2023/09/06 02:43:26;;;;;;;99.47;54.20;;;;;;;22.45;92.29;99473.19;5108718;27;20171;-84
2023/09/06 02:46:12;;;;;;;96.93;54.70;;;;;;;22.44;92.29;99479.59;5107093;27;20411;-84
2023/09/06 02:48:58;;;;;;;100.82;56.40;;;;;;;22.36;92.88;99475.56;5123523;27;20078;-84
2023/09/06 02:51:43;;;;;;;91.60;54.58;;;;;;;22.38;93.13;99469.97;5120897;27;20127;-84
2023/09/06 02:54:29;;;;;;;97.28;53.80;;;;;;;22.25;93.80;99476.63;5120610;27;20520;-84
2023/09/06 02:57:16;;;;;;;97.45;52.92;;;;;;;22.52;92.87;99470.31;5120396;27;20229;-84
2023/09/06 03:00:00;;;;;;;99.82;53.90;;;;;;;22.20;94.21;99468.56;5122031;27;20042;-85
2023/09/06 03:02:45;;;;;;;109.85;51.95;;;;;;;22.52;93.57;99459.59;5101405;27;20163;-83
2023/09/06 03:05:29;;;;;;;104.70;49.95;;;;;;;22.31;93.77;99454.16;5122195;27;20107;-83
2023/09/06 03:08:13;;;;;;;89.28;50.42;;;;;;;22.21;94.92;99456.81;5122705;27;20609;-84
2023/09/06 03:10:57;;;;;;;104.72;52.88;;;;;;;22.24;95.74;99453.63;5102296;27;20712;-83
2023/09/06 03:13:43;;;;;;;215.95;55.05;;;;;;;21.90;97.34;99449.44;5117183;27;20495;-82
2023/09/06 03:16:27;;;;;;;103.45;52.10;;;;;;;22.22;97.09;99458.44;5118247;27;20086;-83
2023/09/06 03:19:13;;;;;;;86.28;49.47;;;;;;;22.33;96.18;99452.03;5105536;27;20042;-83
2023/09/06 03:21:57;;;;;;;98.20;51.95;;;;;;;22.36;96.65;99451.50;5104155;28;20088;-83
2023/09/06 03:24:43;;;;;;;123.70;53.85;;;;;;;22.35;97.06;99449.09;5108720;27;20042;-83
2023/09/06 03:27:28;;;;;;;169.38;57.10;;;;;;;21.71;100.00;99459.78;5121348;27;20091;-83
2023/09/06 03:30:15;;;;;;;126.57;52.72;;;;;;;22.34;98.36;99458.97;5121715;27;20258;-83
2023/09/06 03:32:59;;;;;;;111.35;55.88;;;;;;;22.43;97.08;99467.31;5120414;27;20054;-83
2023/09/06 03:35:48;;;;;;;174.30;58.60;;;;;;;22.29;97.96;99461.66;5119747;27;20632;-84
2023/09/06 03:38:36;;;;;;;130.52;55.17;;;;;;;22.41;98.04;99464.09;5119426;27;20496;-83
2023/09/06 03:41:20;;;;;;;111.80;56.17;;;;;;;22.50;98.10;99461.75;5106838;27;20099;-83
2023/09/06 03:44:04;;;;;;;109.32;57.75;;;;;;;22.52;97.75;99460.41;5116977;27;20115;-85
2023/09/06 03:46:48;;;;;;;167.68;59.83;;;;;;;22.26;99.11;99457.63;5120099;27;20038;-83
2023/09/06 03:49:35;;;;;;;155.82;58.50;;;;;;;22.30;98.14;99467.78;5106845;27;20092;-83
2023/09/06 03:52:20;;;;;;;125.40;58.38;;;;;;;22.37;98.00;99469.16;5118490;27;20131;-84
2023/09/06 03:55:06;;;;;;;116.30;55.97;;;;;;;22.33;99.44;99470.75;5114398;27;20038;-84
2023/09/06 03:57:53;;;;;;;138.65;58.90;;;;;;;22.14;99.40;99470.41;5106885;27;20497;-83
2023/09/06 04:00:43;;;;;;;129.32;59.03;;;;;;;22.28;99.24;99472.59;5118826;27;20042;-83
2023/09/06 04:03:27;;;;;;;133.32;59.10;;;;;;;22.31;99.84;99464.88;5101949;28;20111;-83
2023/09/06 04:06:11;;;;;;;116.65;55.53;;;;;;;22.26;99.97;99472.88;5113615;27;20041;-83
2023/09/06 04:08:55;;;;;;;180.48;57.92;;;;;;;21.81;100.00;99478.56;5123591;27;20484;-83
2023/09/06 04:11:40;;;;;;;120.35;56.67;;;;;;;22.59;99.18;99480.75;5105630;27;20059;-83
2023/09/06 04:14:24;;;;;;;147.65;58.50;;;;;;;22.33;99.00;99480.66;5104720;27;20062;-83
2023/09/06 04:17:08;;;;;;;122.55;55.28;;;;;;;22.45;98.97;99483.88;5098721;28;20042;-83
2023/09/06 04:19:54;;;;;;;124.57;60.10;;;;;;;22.40;99.43;99481.22;5099675;28;20062;-83
2023/09/06 04:22:38;;;;;;;125.13;58.08;;;;;;;22.64;98.75;99489.63;5106183;27;20033;-83
2023/09/06 04:25:22;;;;;;;123.55;56.97;;;;;;;22.60;98.29;99477.00;5124464;27;20501;-83
2023/09/06 04:28:08;;;;;;;117.22;55.05;;;;;;;22.66;97.75;99492.81;5117751;27;20516;-83
2023/09/06 04:30:52;;;;;;;137.68;59.83;;;;;;;22.34;98.76;99496.44;5123309;27;20034;-83
2023/09/06 04:33:36;;;;;;;122.07;54.08;;;;;;;22.53;98.46;99487.97;5118725;27;20111;-83
2023/09/06 04:36:20;;;;;;;117.38;54.42;;;;;;;22.58;98.37;99487.97;5121751;28;20066;-83
2023/09/06 04:39:07;;;;;;;124.25;55.40;;;;;;;22.53;99.21;99485.28;5121528;28;20566;-83
2023/09/06 04:41:51;;;;;;;135.80;58.92;;;;;;;22.57;98.65;99490.94;5102372;28;20119;-83
2023/09/06 04:44:35;;;;;;;122.70;53.70;;;;;;;22.80;97.65;99495.00;5106479;28;20042;-83
2023/09/06 04:47:19;;;;;;;127.43;55.13;;;;;;;22.71;98.25;99488.53;5106730;28;20054;-84
2023/09/06 04:50:04;;;;;;;127.20;56.58;;;;;;;22.78;97.41;99492.56;5117624;28;20091;-84
2023/09/06 04:52:52;;;;;;;124.97;56.25;;;;;;;22.67;97.36;99485.59;5108410;28;20042;-84
2023/09/06 04:55:39;;;;;;;120.93;54.80;;;;;;;22.73;98.11;99502.47;5108585;28;20053;-83
2023/09/06 04:58:23;;;;;;;119.03;53.53;;;;;;;22.82;97.53;99495.53;5126907;27;20050;-84
2023/09/06 05:01:08;;;;;;;130.20;57.63;;;;;;;22.95;97.06;99497.69;5122325;27;20038;-84
2023/09/06 05:03:51;;;;;;;113.25;55.20;;;;;;;22.98;96.71;99499.03;5123275;27;20035;-84
2023/09/06 05:06:36;;;;;;;115.85;54.65;;;;;;;22.83;97.64;99491.78;5111765;27;20062;-84
2023/09/06 05:09:21;;;;;;;123.22;56.13;;;;;;;22.68;97.36;99485.34;5108165;27;20034;-85
2023/09/06 05:12:06;;;;;;;122.85;55.67;;;;;;;22.81;97.21;99488.59;5109647;27;20115;-84
2023/09/06 05:14:50;;;;;;;122.60;58.92;;;;;;;22.63;97.93;99493.34;5127064;27;20062;-84
2023/09/06 05:17:35;;;;;;;117.75;55.92;;;;;;;22.82;97.44;99498.22;5118182;27;20117;-83
2023/09/06 05:20:31;;;;;;;126.60;57.88;;;;;;;22.83;97.36;99497.16;5104872;27;20061;-84
2023/09/06 05:23:15;;;;;;;114.72;54.65;;;;;;;22.60;97.55;99499.25;5123559;27;20140;-84
2023/09/06 05:25:59;;;;;;;109.28;54.40;;;;;;;22.92;97.12;99487.50;5107635;27;20066;-85
2023/09/06 05:28:43;;;;;;;118.22;57.22;;;;;;;22.76;97.40;99476.00;5119886;27;20117;-84
2023/09/06 05:31:27;;;;;;;109.20;56.10;;;;;;;22.78;97.12;99468.50;5124659;27;20046;-83
2023/09/06 05:34:11;;;;;;;104.80;53.72;;;;;;;22.68;97.72;99463.09;5120838;27;20046;-83
2023/09/06 05:36:56;;;;;;;107.32;54.17;;;;;;;22.65;98.15;99467.13;5125350;27;20128;-84
2023/09/06 05:39:39;;;;;;;110.45;52.35;;;;;;;22.28;99.29;99476.09;5105750;27;20046;-84
2023/09/06 05:42:24;;;;;;;111.50;53.70;;;;;;;22.56;98.59;99487.44;5124078;27;20050;-84
2023/09/06 05:45:13;;;;;;;100.95;47.20;;;;;;;22.81;96.71;99485.91;5122162;27;20435;-85
2023/09/06 05:47:58;;;;;;;118.50;49.03;;;;;;;22.52;97.67;99479.16;5125666;27;20083;-84
2023/09/06 05:50:42;;;;;;;117.93;49.10;;;;;;;22.37;99.35;99474.50;5117776;27;20074;-84
2023/09/06 05:53:26;;;;;;;123.15;51.42;;;;;;;21.88;100.00;99480.19;5116502;27;20072;-85
2023/09/06 05:56:10;;;;;;;105.93;49.65;;;;;;;22.36;98.97;99480.13;5108700;27;20568;-82
2023/09/06 05:58:54;;;;;;;108.53;48.75;;;;;;;22.61;98.46;99474.09;5106027;27;20042;-82
2023/09/06 06:01:39;;;;;;;102.97;47.35;;;;;;;22.74;97.60;99483.47;5103831;27;20104;-84
2023/09/06 06:04:23;;;;;;;108.97;49.25;;;;;;;23.00;96.89;99483.50;5123424;27;20091;-82
2023/09/06 06:07:07;;;;;;;99.72;49.50;;;;;;;22.89;96.68;99485.38;5122005;27;20120;-82
2023/09/06 06:09:52;;;;;;;102.55;49.60;;;;;;;22.73;96.71;99489.09;5119991;27;20062;-84
2023/09/06 06:12:40;;;;;;;100.90;47.33;;;;;;;22.74;96.95;99494.19;5118150;27;20089;-85
2023/09/06 06:15:25;;;;;;;98.13;48.30;;;;;;;22.69;96.46;99486.13;5121308;27;20104;-84
2023/09/06 06:18:09;;;;;;;101.07;50.72;;;;;;;22.68;97.57;99489.88;5105125;27;20062;-86
2023/09/06 06:20:54;;;;;;;98.43;49.72;;;;;;;22.66;97.80;99503.53;5122134;27;20054;-81
2023/09/06 06:23:43;;;;;;;97.50;49.42;;;;;;;23.06;96.08;99495.03;5122438;27;20042;-80
2023/09/06 06:26:27;;;;;;;89.13;46.05;;;;;;;23.44;95.08;99503.63;5100586;27;20061;-83
2023/09/06 06:29:11;;;;;;;113.07;50.47;;;;;;;23.24;94.38;99501.72;5115988;27;20039;-82
2023/09/06 06:31:56;;;;;;;92.18;48.08;;;;;;;23.42;94.29;99497.75;5116458;27;20073;-82
2023/09/06 06:34:40;;;;;;;105.43;48.28;;;;;;;23.24;94.29;99507.91;5102584;27;20050;-80
2023/09/06 06:37:24;;;;;;;95.25;47.40;;;;;;;23.37;93.86;99505.75;5118334;27;20071;-80
2023/09/06 06:40:09;;;;;;;91.00;46.45;;;;;;;23.51;93.68;99517.56;5113288;27;20054;-81
2023/09/06 06:42:53;;;;;;;85.45;45.53;;;;;;;23.69;92.79;99523.44;5098844;28;20127;-87
2023/09/06 06:45:37;;;;;;;86.65;45.97;;;;;;;23.62;92.08;99521.03;5118275;27;20041;-82
2023/09/06 06:48:24;;;;;;;79.20;43.90;;;;;;;23.66;91.41;99523.97;5104627;27;20440;-82
2023/09/06 06:51:08;;;;;;;85.88;45.22;;;;;;;23.54;92.34;99517.00;5116783;27;20399;-82
2023/09/06 06:53:52;;;;;;;81.68;44.90;;;;;;;23.70;91.77;99530.41;5125892;27;20047;-82
2023/09/06 06:56:37;;;;;;;90.60;45.70;;;;;;;23.43;91.57;99533.38;5119787;27;20096;-82
2023/09/06 06:59:21;;;;;;;79.18;42.35;;;;;;;23.93;91.24;99522.84;5116440;27;20527;-82
2023/09/06 07:02:05;;;;;;;81.32;44.30;;;;;;;23.76;90.68;99523.94;5117127;27;20038;-82
2023/09/06 07:04:49;;;;;;;84.35;44.63;;;;;;;23.77;90.24;99516.72;5119983;27;20495;-82
2023/09/06 07:07:33;;;;;;;86.65;44.47;;;;;;;23.74;90.09;99520.75;5110823;27;20050;-80
2023/09/06 07:10:17;;;;;;;75.80;42.28;;;;;;;24.15;88.87;99529.78;5097644;27;20491;-80
2023/09/06 07:13:02;;;;;;;81.47;45.60;;;;;;;24.07;89.40;99533.84;5118524;27;20100;-80
2023/09/06 07:15:46;;;;;;;77.75;43.22;;;;;;;24.19;88.89;99526.31;5113590;27;20045;-80
2023/09/06 07:18:30;;;;;;;75.45;43.55;;;;;;;24.23;88.93;99534.63;5118072;27;20515;-80
2023/09/06 07:21:16;;;;;;;78.47;45.67;;;;;;;24.12;88.30;99541.91;5115642;27;20043;-78
2023/09/06 07:24:00;;;;;;;68.38;39.58;;;;;;;24.81;87.20;99533.31;5117141;27;20150;-80
2023/09/06 07:26:44;;;;;;;71.90;42.90;;;;;;;24.89;86.11;99538.09;5097389;27;20037;-80
2023/09/06 07:29:28;;;;;;;67.82;40.45;;;;;;;24.75;86.24;99537.06;5112643;27;20092;-83
2023/09/06 07:32:11;;;;;;;72.03;42.90;;;;;;;24.64;85.66;99534.44;5117955;27;20050;-83
2023/09/06 07:34:55;;;;;;;66.95;39.42;;;;;;;25.10;84.62;99537.94;5115285;27;20054;-82
2023/09/06 07:37:41;;;;;;;66.45;39.95;;;;;;;25.24;83.98;99540.81;5102257;27;20042;-82
2023/09/06 07:40:26;;;;;;;61.83;36.35;;;;;;;25.63;83.33;99539.97;5115622;27;20045;-82
2023/09/06 07:43:12;;;;;;;61.03;37.53;;;;;;;25.74;82.03;99545.28;5103221;27;20121;-82
2023/09/06 07:46:00;;;;;;;62.47;39.53;;;;;;;25.67;81.92;99540.22;5119557;27;20066;-82
2023/09/06 07:48:44;;;;;;;61.80;39.40;;;;;;;26.06;80.65;99543.88;5118272;27;20084;-83
2023/09/06 07:51:29;;;;;;;57.03;36.90;;;;;;;26.23;80.21;99551.50;5098884;28;20047;-83
2023/09/06 07:54:14;;;;;;;63.83;40.97;;;;;;;26.11;79.67;99549.19;5121028;27;20526;-82
2023/09/06 07:56:58;;;;;;;60.17;37.20;;;;;;;26.31;79.56;99550.09;5102736;27;20047;-81
2023/09/06 07:59:42;;;;;;;59.95;38.95;;;;;;;26.16;78.50;99561.81;5116647;27;20046;-82
2023/09/06 08:02:26;;;;;;;62.92;40.28;;;;;;;25.92;78.67;99559.88;5117402;27;20682;-81
2023/09/06 08:05:11;;;;;;;59.80;39.72;;;;;;;25.72;80.04;99572.44;5103651;27;20093;-82
2023/09/06 08:07:55;;;;;;;64.13;39.67;;;;;;;25.81;79.10;99561.84;5104732;27;20930;-83
2023/09/06 08:10:40;;;;;;;64.18;39.70;;;;;;;25.97;78.65;99562.53;5121600;27;20042;-85
2023/09/06 08:13:24;;;;;;;61.72;40.75;;;;;;;26.25;78.73;99573.56;5118288;27;20059;-85
2023/09/06 08:16:08;;;;;;;;;;;;;;;26.56;77.67;99575.91;5106173;27;20050;-84
2023/09/06 08:18:53;;;;;;;59.17;37.92;;;;;;;26.83;76.24;99574.47;5117220;27;19960;-84
2023/09/06 08:21:37;;;;;;;59.03;37.70;;;;;;;27.05;76.30;99575.81;5121819;27;20099;-85
2023/09/06 08:24:21;;;;;;;65.00;41.60;;;;;;;26.58;75.85;99571.03;5115566;27;20038;-85
2023/09/06 08:27:06;;;;;;;57.72;38.08;;;;;;;26.88;76.28;99571.72;5119682;27;20034;-85
2023/09/06 08:29:49;;;;;;;62.72;39.47;;;;;;;26.94;75.01;99581.34;5120923;27;20083;-83
2023/09/06 08:32:33;;;;;;;59.58;38.30;;;;;;;27.33;74.62;99581.34;5113205;28;20053;-83
2023/09/06 08:35:18;;;;;;;63.83;38.17;;;;;;;27.47;74.30;99571.38;5124865;27;20046;-84
2023/09/06 08:38:02;;;;;;;56.85;37.67;;;;;;;27.57;73.77;99575.03;5124078;28;20046;-84
2023/09/06 08:40:46;;;;;;;54.83;37.25;;;;;;;27.85;72.30;99569.69;5107985;28;20058;-84
2023/09/06 08:43:35;;;;;;;54.25;36.53;;;;;;;28.22;71.89;99567.97;5122066;28;20496;-84
2023/09/06 08:46:27;;;;;;;58.45;38.45;;;;;;;27.93;71.61;99571.72;5116859;28;20092;-83
2023/09/06 08:49:12;;;;;;;52.72;35.42;;;;;;;28.28;71.15;99577.56;5099519;28;20046;-84
2023/09/06 08:52:00;;;;;;;54.65;36.50;;;;;;;28.31;71.26;99574.28;5100052;28;20070;-84
2023/09/06 08:54:45;;;;;;;55.45;37.28;;;;;;;28.25;71.84;99567.34;5119565;28;20515;-83
2023/09/06 08:57:29;;;;;;;56.15;37.28;;;;;;;28.34;71.17;99565.56;5107224;28;20545;-84
2023/09/06 09:00:14;;;;;;;53.60;36.67;;;;;;;28.19;70.22;99560.47;5103703;28;20042;-84
2023/09/06 09:02:58;;;;;;;51.78;34.33;;;;;;;27.86;70.61;99560.50;5100598;28;20051;-84
2023/09/06 09:05:42;;;;;;;53.22;35.15;;;;;;;27.66;71.57;99557.09;5115719;28;20092;-84
2023/09/06 09:08:30;;;;;;;52.58;35.35;;;;;;;27.71;71.13;99558.91;5106389;28;20091;-83
2023/09/06 09:11:18;;;;;;;51.97;35.83;;;;;;;27.39;72.16;99553.19;5117100;28;20110;-83
2023/09/06 09:14:03;;;;;;;57.88;38.03;;;;;;;27.13;73.12;99556.28;5120697;28;20507;-83
2023/09/06 09:16:59;;;;;;;63.60;41.13;;;;;;;25.98;75.26;99558.75;5102465;28;20049;-84
2023/09/06 09:19:53;;;;;;;61.63;38.05;;;;;;;26.54;74.89;99556.53;5106444;28;20091;-83
2023/09/06 09:22:38;;;;;;;66.00;41.75;;;;;;;26.53;75.21;99557.63;5116772;28;20116;-84
2023/09/06 09:25:23;;;;;;;59.67;38.20;;;;;;;26.88;74.11;99555.56;5119331;28;20042;-83
2023/09/06 09:28:07;;;;;;;57.95;38.08;;;;;;;27.00;73.91;99554.34;5122018;28;20583;-83
2023/09/06 09:30:51;;;;;;;54.80;35.55;;;;;;;27.28;74.71;99562.53;5113687;28;20066;-83
2023/09/06 09:33:35;;;;;;;62.78;40.15;;;;;;;27.33;74.10;99565.16;5120546;28;20116;-84
2023/09/06 09:36:19;;;;;;;58.45;37.55;;;;;;;27.42;73.85;99554.50;5090968;28;20051;-84
2023/09/06 09:39:07;;;;;;;59.58;36.97;;;;;;;27.45;73.83;99559.31;5096692;28;20092;-84
2023/09/06 09:41:51;;;;;;;58.50;36.42;;;;;;;27.54;73.67;99564.84;5097043;28;20035;-83
2023/09/06 09:44:36;;;;;;;66.78;40.17;;;;;;;27.34;73.33;99566.75;5083430;28;20054;-84
2023/09/06 09:47:20;;;;;;;69.20;40.10;;;;;;;27.44;72.58;99571.19;5089483;28;20471;-84
2023/09/06 09:50:05;;;;;;;56.40;36.67;;;;;;;27.70;72.62;99574.25;5093615;28;20043;-86
2023/09/06 09:52:51;;;;;;;64.30;41.28;;;;;;;27.27;72.58;99566.31;5101342;28;20545;-84
2023/09/06 09:55:42;;;;;;;54.13;36.50;;;;;;;27.61;73.18;99565.25;5104565;28;20039;-84
2023/09/06 09:58:27;;;;;;;55.33;35.33;;;;;;;27.65;72.78;99566.25;5094833;28;20055;-84
2023/09/06 10:01:14;;;;;;;63.28;39.28;;;;;;;27.48;73.15;99556.00;5102813;28;20401;-84
2023/09/06 10:04:05;;;;;;;56.40;36.08;;;;;;;27.82;72.89;99551.41;5088246;28;20043;-84
2023/09/06 10:06:49;;;;;;;50.83;34.03;;;;;;;27.93;71.98;99555.53;5105265;28;20035;-84
2023/09/06 10:09:37;;;;;;;55.33;34.92;;;;;;;27.67;72.37;99553.28;5092002;28;20119;-84
2023/09/06 10:12:24;;;;;;;51.45;35.97;;;;;;;28.01;71.79;99546.75;5102685;28;20141;-84
2023/09/06 10:15:09;;;;;;;57.05;37.17;;;;;;;28.05;71.80;99546.94;5094729;28;20472;-84
2023/09/06 10:17:58;;;;;;;52.35;35.75;;;;;;;28.20;71.76;99546.69;5098572;28;20047;-85
2023/09/06 10:20:43;;;;;;;64.50;38.13;;;;;;;28.28;71.23;99552.47;5103998;28;20130;-83
2023/09/06 10:23:31;;;;;;;56.13;37.08;;;;;;;28.26;70.61;99547.38;5100827;28;20065;-83
2023/09/06 10:26:26;;;;;;;58.95;36.20;;;;;;;28.28;71.29;99545.16;5101292;28;20097;-83
2023/09/06 10:29:10;;;;;;;56.20;36.67;;;;;;;28.28;71.12;99545.16;5105158;28;20105;-83
2023/09/06 10:32:01;;;;;;;61.17;39.38;;;;;;;28.22;70.86;99546.38;5100353;28;20150;-83
2023/09/06 10:34:45;;;;;;;60.35;38.65;;;;;;;28.35;71.13;99550.97;5100785;28;20034;-83
2023/09/06 10:38:07;;;;;;;53.88;36.22;;;;;;;28.56;71.51;99545.16;5122090;27;20100;-84
2023/09/06 10:40:51;;;;;;;57.88;35.65;;;;;;;28.69;70.72;99538.13;5108090;27;20037;-83
2023/09/06 10:43:54;;;;;;;60.25;38.70;;;;;;;28.71;69.87;99540.53;5122482;27;20039;-84
2023/09/06 10:46:39;;;;;;;56.83;37.45;;;;;;;28.90;69.92;99541.19;5120734;27;20033;-83
2023/09/06 10:49:25;;;;;;;58.50;35.65;;;;;;;29.06;69.84;99536.22;5107330;27;20050;-83
2023/09/06 10:52:11;;;;;;;53.72;35.35;;;;;;;29.19;69.53;99541.88;5125985;27;20038;-83
2023/09/06 10:54:55;;;;;;;56.05;36.40;;;;;;;29.18;68.63;99532.97;5121478;27;20043;-82
2023/09/06 10:57:51;;;;;;;59.28;34.80;;;;;;;29.38;68.78;99533.56;5105116;27;20088;-84
2023/09/06 11:00:35;;;;;;;49.35;33.45;;;;;;;29.42;68.94;99531.09;5107539;27;20046;-84
2023/09/06 11:03:21;;;;;;;51.45;34.10;;;;;;;29.50;68.08;99533.84;5107661;27;20095;-83
2023/09/06 11:06:05;;;;;;;45.75;31.02;;;;;;;29.47;68.03;99528.25;5118405;27;20404;-83
2023/09/06 11:08:50;;;;;;;39.25;28.90;;;;;;;29.63;68.72;99526.75;5104320;27;20042;-84
2023/09/06 11:11:37;;;;;;;43.50;30.00;;;;;;;29.71;67.73;99518.97;5120311;27;20421;-83
2023/09/06 11:14:27;;;;;;;39.58;28.35;;;;;;;29.93;66.79;99523.53;5123691;27;20078;-83
2023/09/06 11:17:22;;;;;;;44.42;28.45;;;;;;;29.79;67.23;99521.72;5107188;27;20056;-84
2023/09/06 11:20:12;;;;;;;38.33;26.58;;;;;;;30.11;68.69;99529.03;5113479;27;20061;-83
2023/09/06 11:22:58;;;;;;;46.40;30.58;;;;;;;30.21;68.70;99512.47;5123472;27;20517;-83
2023/09/06 11:25:44;;;;;;;47.50;30.55;;;;;;;30.26;68.08;99514.25;5106003;27;20501;-84
2023/09/06 11:28:30;;;;;;;47.30;32.10;;;;;;;30.17;68.55;99515.03;5120232;27;20446;-83
2023/09/06 11:31:29;;;;;;;45.42;31.45;;;;;;;30.21;68.85;99516.00;5104809;27;20084;-84
2023/09/06 11:34:17;;;;;;;47.63;33.10;;;;;;;30.29;68.90;99519.84;5106006;27;20117;-83
2023/09/06 11:37:03;;;;;;;44.63;29.42;;;;;;;30.64;67.83;99528.03;5125247;27;20046;-83
2023/09/06 11:39:49;;;;;;;41.75;29.25;;;;;;;30.91;68.36;99522.59;5109465;27;20046;-83
2023/09/06 11:42:34;;;;;;;45.05;31.23;;;;;;;30.95;68.32;99528.19;5122586;27;20062;-84
2023/09/06 11:45:20;;;;;;;42.78;30.73;;;;;;;31.16;67.67;99522.94;5114886;27;20050;-84
2023/09/06 11:48:08;;;;;;;44.40;29.55;;;;;;;31.33;67.04;99527.53;5118151;27;20579;-83
2023/09/06 11:50:58;;;;;;;43.03;31.75;;;;;;;31.69;66.65;99526.31;5102146;27;20071;-83
2023/09/06 11:53:48;;;;;;;45.13;31.20;;;;;;;31.83;66.02;99528.03;5108251;27;20050;-84
2023/09/06 11:56:36;;;;;;;47.97;28.33;;;;;;;31.76;65.62;99529.31;5101010;27;20146;-83
2023/09/06 11:59:20;;;;;;;45.53;32.00;;;;;;;31.88;64.77;99520.50;5107077;27;20050;-83
2023/09/06 12:02:06;;;;;;;45.20;29.92;;;;;;;31.93;65.70;99519.53;5120372;27;20092;-83
2023/09/06 12:05:01;;;;;;;45.53;29.58;;;;;;;32.29;63.69;99517.41;5117471;27;20509;-83
2023/09/06 12:07:45;;;;;;;44.38;31.55;;;;;;;32.23;64.58;99524.16;5122146;27;20045;-84
2023/09/06 12:10:29;;;;;;;41.80;29.00;;;;;;;32.32;65.10;99509.41;5107046;27;20078;-84
2023/09/06 12:13:13;;;;;;;49.83;30.67;;;;;;;32.35;65.04;99518.84;5103108;27;20099;-84
2023/09/06 12:15:58;;;;;;;45.03;29.10;;;;;;;32.57;64.75;99506.06;5125419;27;20042;-84
2023/09/06 12:18:44;;;;;;;38.35;27.40;;;;;;;32.73;63.09;99515.22;5109868;27;20034;-84
2023/09/06 12:21:28;;;;;;;40.60;26.55;;;;;;;32.78;63.73;99500.59;5124834;27;20030;-84
2023/09/06 12:24:13;;;;;;;38.38;26.90;;;;;;;32.90;63.01;99494.44;5116536;27;20043;-85
2023/09/06 12:26:58;;;;;;;40.50;28.27;;;;;;;32.79;64.18;99504.91;5100295;27;20429;-84
2023/09/06 12:29:42;;;;;;;42.65;29.25;;;;;;;32.59;63.48;99503.81;5122598;27;20073;-83
2023/09/06 12:32:28;;;;;;;42.10;27.35;;;;;;;32.68;63.75;99509.19;5121147;27;20051;-83
2023/09/06 12:35:13;;;;;;;38.45;27.25;;;;;;;32.93;62.95;99512.03;5117327;27;20096;-83
2023/09/06 12:37:57;;;;;;;33.40;24.45;;;;;;;33.04;63.55;99503.13;5121298;27;20074;-83